Terminal Aerodrome Forecast
Issued by NWS

Home | Current Version | Previous Version | Text Only | Print | Product List | Glossary On
Versions: 1 2 3 4 5 6 7 8 9 10 11 12 13 14 15 16 17 18 19 20 21 22 23 24 25 26 27 28 29 30 31 32 33 34 35 36 37 38 39 40 41 42 43 44
000
FTUS45 KGJT 310716 AAA
TAFTEX
TAF AMD
KTEX 310716Z 3107/0106 00000KT 3SM BR SCT001 OVC040
      TEMPO 3107/3109 1/2SM FZFG OVC001
     FM310900 VRB04KT 3SM -SN BR OVC020
     FM311200 27005KT 1 1/2SM -SN BR OVC007
     FM312000 27005KT 3SM -SN BR OVC015
     FM010300 24005KT P6SM VCSH SCT015 BKN040=

USA.gov is the U.S. government's official web portal to all federal, state and local government web resources and services.